createdAt,value
2019-04-21T00:00:52.199Z,11.038818
2019-04-21T00:01:48.687Z,10.998535
2019-04-21T00:02:47.558Z,10.978394
2019-04-21T00:03:50.021Z,10.93811
2019-04-21T00:04:57.760Z,10.917969
2019-04-21T00:06:02.793Z,10.917969
2019-04-21T00:07:02.781Z,10.867615
2019-04-21T00:08:07.309Z,10.867615
2019-04-21T00:09:10.843Z,10.857544
2019-04-21T00:10:05.647Z,10.837402
2019-04-21T00:11:09.165Z,10.837402
2019-04-21T00:12:07.096Z,10.837402
2019-04-21T00:13:01.681Z,10.837402
2019-04-21T00:14:00.846Z,10.797119
2019-04-21T00:14:57.724Z,10.797119
2019-04-21T00:15:51.988Z,10.766907
2019-04-21T00:16:52.786Z,10.756836
2019-04-21T00:17:51.533Z,10.766907
2019-04-21T00:18:54.524Z,10.746765
2019-04-21T00:19:46.040Z,10.716553
2019-04-21T00:20:50.064Z,10.716553
2019-04-21T00:21:53.052Z,10.706482
2019-04-21T00:22:56.389Z,10.68634
2019-04-21T00:24:00.186Z,10.67627
2019-04-21T00:25:00.901Z,10.666199
2019-04-21T00:25:58.054Z,10.666199
2019-04-21T00:27:05.068Z,10.646057
2019-04-21T00:28:06.424Z,10.635986
2019-04-21T00:29:08.952Z,10.635986
2019-04-21T00:30:03.134Z,10.615845
2019-04-21T00:31:04.162Z,10.605774
2019-04-21T00:32:01.365Z,10.575562
2019-04-21T00:32:56.048Z,10.565491
2019-04-21T00:33:49.474Z,10.525208
2019-04-21T00:34:50.888Z,10.505066
2019-04-21T00:35:54.820Z,10.494995
2019-04-21T00:36:55.678Z,10.464783
2019-04-21T00:38:07.743Z,10.4245
2019-04-21T00:39:20.514Z,10.394287
2019-04-21T00:40:09.041Z,10.343933
2019-04-21T00:41:05.291Z,10.283508
2019-04-21T00:42:05.029Z,10.253296
2019-04-21T00:43:03.357Z,10.202942
2019-04-21T00:44:00.524Z,10.172729
2019-04-21T00:45:01.661Z,10.152588
2019-04-21T00:45:57.334Z,10.172729
2019-04-21T00:47:01.687Z,10.172729
2019-04-21T00:48:09.610Z,10.1828
2019-04-21T00:49:05.445Z,10.1828
2019-04-21T00:50:24.540Z,10.1828
2019-04-21T00:52:20.701Z,10.202942
2019-04-21T00:53:28.539Z,10.202942
2019-04-21T00:54:24.390Z,10.213013
2019-04-21T00:55:19.919Z,10.213013
2019-04-21T00:56:15.113Z,10.233154
2019-04-21T00:58:10.315Z,10.233154
2019-04-21T00:59:13.463Z,10.202942
2019-04-21T01:00:11.483Z,10.202942
2019-04-21T01:01:06.976Z,10.202942
2019-04-21T01:02:08.892Z,10.1828
2019-04-21T01:03:08.249Z,10.172729
2019-04-21T01:04:07.692Z,10.132446
2019-04-21T01:05:10.714Z,10.092163
2019-04-21T01:06:09.589Z,10.061951
2019-04-21T01:07:12.264Z,10.061951
2019-04-21T01:08:09.305Z,10.05188
2019-04-21T01:09:07.458Z,10.021667
2019-04-21T01:10:01.093Z,10.021667
2019-04-21T01:10:58.692Z,10.021667
2019-04-21T01:12:06.741Z,10.001526
2019-04-21T01:13:15.765Z,10.001526
2019-04-21T01:14:11.594Z,9.971313
2019-04-21T01:15:18.154Z,9.941101
2019-04-21T01:16:13.608Z,9.951172
2019-04-21T01:17:12.727Z,9.920959
2019-04-21T01:18:08.783Z,9.920959
2019-04-21T01:19:04.870Z,9.941101
2019-04-21T01:20:01.014Z,9.971313
2019-04-21T01:20:49.195Z,9.991455
2019-04-21T01:21:49.283Z,10.001526
2019-04-21T01:22:48.443Z,9.971313
2019-04-21T01:23:50.735Z,9.951172
2019-04-21T01:24:59.946Z,9.941101
2019-04-21T01:26:00.443Z,9.941101
2019-04-21T01:27:00.499Z,9.941101
2019-04-21T01:28:03.406Z,9.920959
2019-04-21T01:29:05.244Z,9.920959
2019-04-21T01:30:11.355Z,9.910889
2019-04-21T01:31:08.605Z,9.920959
2019-04-21T01:32:17.615Z,9.920959
2019-04-21T01:33:12.167Z,9.900818
2019-04-21T01:34:08.170Z,9.900818
2019-04-21T01:35:08.226Z,9.900818
2019-04-21T01:36:08.013Z,9.910889
2019-04-21T01:37:03.701Z,9.910889
2019-04-21T01:38:13.694Z,9.910889
2019-04-21T01:39:12.961Z,9.900818
2019-04-21T01:40:16.032Z,9.910889
2019-04-21T01:41:12.781Z,9.910889
2019-04-21T01:42:08.664Z,9.900818
2019-04-21T01:43:07.257Z,9.900818
2019-04-21T01:44:04.724Z,9.900818
2019-04-21T01:45:09.126Z,9.880676
2019-04-21T01:46:08.917Z,9.870605
2019-04-21T01:47:05.910Z,9.840393
2019-04-21T01:48:05.639Z,9.80011
2019-04-21T01:49:04.319Z,9.769897
2019-04-21T01:49:58.901Z,9.729614
2019-04-21T01:51:04.956Z,9.699402
2019-04-21T01:52:29.804Z,9.689331
2019-04-21T01:53:17.134Z,9.659119
2019-04-21T01:54:14.295Z,9.618835
2019-04-21T01:55:05.845Z,9.558411
2019-04-21T01:56:11.534Z,9.54834
2019-04-21T01:57:07.141Z,9.518127
2019-04-21T01:58:05.784Z,9.487915
2019-04-21T01:58:59.137Z,9.467773
2019-04-21T01:59:59.611Z,9.437561
2019-04-21T02:01:04.363Z,9.397278
2019-04-21T02:02:10.240Z,9.397278
2019-04-21T02:03:20.853Z,9.367065
2019-04-21T02:04:13.647Z,9.367065
2019-04-21T02:05:16.797Z,9.336853
2019-04-21T02:06:26.926Z,9.326782
2019-04-21T02:07:14.465Z,9.29657
2019-04-21T02:08:10.593Z,9.29657
2019-04-21T02:09:09.561Z,9.266357
2019-04-21T02:10:17.461Z,9.266357
2019-04-21T02:12:13.200Z,9.256287
2019-04-21T02:13:11.598Z,9.236145
2019-04-21T02:14:14.552Z,9.216003
2019-04-21T02:15:16.449Z,9.185791
2019-04-21T02:16:11.088Z,9.17572
2019-04-21T02:17:13.131Z,9.17572
2019-04-21T02:18:11.745Z,9.17572
2019-04-21T02:19:04.222Z,9.145508
2019-04-21T02:20:02.399Z,9.145508
2019-04-21T02:20:59.978Z,9.125366
2019-04-21T02:22:03.143Z,9.125366
2019-04-21T02:23:26.154Z,9.115295
2019-04-21T02:24:20.229Z,9.085083
2019-04-21T02:25:13.724Z,9.085083
2019-04-21T02:26:15.910Z,9.034729
2019-04-21T02:27:12.597Z,9.034729
2019-04-21T02:28:19.145Z,9.024658
2019-04-21T02:29:14.167Z,8.974304
2019-04-21T02:30:18.092Z,8.964233
2019-04-21T02:31:35.695Z,8.934021
2019-04-21T02:34:40.074Z,8.843384
2019-04-21T02:35:29.679Z,8.823242
2019-04-21T02:36:28.876Z,8.79303
2019-04-21T02:40:38.276Z,8.692322
2019-04-21T02:41:21.114Z,8.682251
2019-04-21T02:42:18.023Z,8.641968
2019-04-21T02:43:32.672Z,8.611755
2019-04-21T02:45:22.686Z,8.601685
2019-04-21T02:46:37.169Z,8.591614
2019-04-21T02:47:36.532Z,8.571472
2019-04-21T02:51:27.258Z,8.561401
2019-04-21T02:52:30.804Z,8.561401
2019-04-21T02:53:26.756Z,8.571472
2019-04-21T02:55:21.778Z,8.611755
2019-04-21T02:56:24.451Z,8.631897
2019-04-21T02:57:21.239Z,8.631897
2019-04-21T02:58:24.466Z,8.631897
2019-04-21T02:59:14.658Z,8.631897
2019-04-21T03:00:29.672Z,8.641968
2019-04-21T03:01:48.252Z,8.641968
2019-04-21T03:03:27.415Z,8.682251
2019-04-21T03:04:27.822Z,8.692322
2019-04-21T03:05:27.696Z,8.712463
2019-04-21T03:06:28.710Z,8.722534
2019-04-21T03:07:17.463Z,8.722534
2019-04-21T03:08:33.485Z,8.722534
2019-04-21T03:09:23.836Z,8.722534
2019-04-21T03:10:24.387Z,8.692322
2019-04-21T03:11:16.805Z,8.682251
2019-04-21T03:13:28.901Z,8.662109
2019-04-21T03:14:45.891Z,8.631897
2019-04-21T03:15:28.736Z,8.641968
2019-04-21T03:16:25.675Z,8.641968
2019-04-21T03:17:42.447Z,8.611755
2019-04-21T03:18:32.364Z,8.591614
2019-04-21T03:19:26.999Z,8.561401
2019-04-21T03:20:23.190Z,8.54126
2019-04-21T03:21:20.273Z,8.531189
2019-04-21T03:22:23.815Z,8.500977
2019-04-21T03:23:27.375Z,8.460693
2019-04-21T03:24:28.795Z,8.460693
2019-04-21T03:25:32.903Z,8.500977
2019-04-21T03:27:39.456Z,8.42041
2019-04-21T03:28:29.503Z,8.390198
2019-04-21T03:29:27.984Z,8.390198
2019-04-21T03:30:41.825Z,8.359985
2019-04-21T03:32:03.271Z,8.349915
2019-04-21T03:33:58.160Z,8.319702
2019-04-21T03:35:57.187Z,8.279419
2019-04-21T03:36:46.972Z,8.309631
2019-04-21T03:38:26.684Z,8.279419
2019-04-21T03:39:28.434Z,8.259277
2019-04-21T03:40:18.400Z,8.239136
2019-04-21T03:41:28.590Z,8.208923
2019-04-21T03:44:36.847Z,8.198853
2019-04-21T03:45:30.095Z,8.198853
2019-04-21T03:48:26.556Z,8.128357
2019-04-21T03:50:25.984Z,8.057861
2019-04-21T03:51:25.417Z,8.047791
2019-04-21T03:53:23.879Z,8.007507
2019-04-21T03:54:24.948Z,7.987366
2019-04-21T03:56:50.744Z,7.926941
2019-04-21T03:57:31.131Z,7.896729
2019-04-21T03:59:15.865Z,7.876587
2019-04-21T04:00:41.631Z,7.866516
2019-04-21T04:02:32.512Z,7.826233
2019-04-21T04:04:27.629Z,7.796021
2019-04-21T04:05:34.259Z,7.796021
2019-04-21T04:06:24.313Z,7.775879
2019-04-21T04:07:30.732Z,7.775879
2019-04-21T04:08:43.299Z,7.745667
2019-04-21T04:09:36.610Z,7.735596
2019-04-21T04:10:31.086Z,7.695312
2019-04-21T04:12:25.947Z,7.695312
2019-04-21T04:13:36.514Z,7.6651
2019-04-21T04:14:30.532Z,7.6651
2019-04-21T04:15:30.609Z,7.6651
2019-04-21T04:16:44.846Z,7.644958
2019-04-21T04:17:25.280Z,7.594604
2019-04-21T04:18:38.854Z,7.584534
2019-04-21T04:19:32.625Z,7.564392
2019-04-21T04:20:27.711Z,7.554321
2019-04-21T04:22:29.276Z,7.554321
2019-04-21T04:23:30.808Z,7.554321
2019-04-21T04:24:29.718Z,7.53418
2019-04-21T04:25:42.219Z,7.503967
2019-04-21T04:26:31.249Z,7.473755
2019-04-21T04:28:37.965Z,7.463684
2019-04-21T04:29:23.848Z,7.433472
2019-04-21T04:30:29.141Z,7.433472
2019-04-21T04:32:28.284Z,7.41333
2019-04-21T04:33:36.966Z,7.41333
2019-04-21T04:34:27.129Z,7.41333
2019-04-21T04:35:33.447Z,7.403259
2019-04-21T04:37:31.601Z,7.403259
2019-04-21T04:38:31.999Z,7.41333
2019-04-21T04:41:32.042Z,7.393188
2019-04-21T04:42:38.831Z,7.373047
2019-04-21T04:43:44.275Z,7.332764
2019-04-21T04:44:54.009Z,7.332764
2019-04-21T04:45:30.302Z,7.322693
2019-04-21T04:46:33.072Z,7.332764
2019-04-21T04:47:22.552Z,7.362976
2019-04-21T04:48:27.589Z,7.332764
2019-04-21T04:51:55.734Z,7.362976
2019-04-21T04:52:32.351Z,7.362976
2019-04-21T04:53:43.738Z,7.373047
2019-04-21T04:55:33.011Z,7.373047
2019-04-21T04:56:28.563Z,7.373047
2019-04-21T04:58:42.518Z,7.403259
2019-04-21T05:00:40.373Z,7.393188
2019-04-21T05:01:50.942Z,7.403259
2019-04-21T05:02:32.996Z,7.41333
2019-04-21T05:03:43.258Z,7.41333
2019-04-21T05:04:35.158Z,7.41333
2019-04-21T05:05:46.579Z,7.433472
2019-04-21T05:07:31.703Z,7.463684
2019-04-21T05:08:41.737Z,7.473755
2019-04-21T05:09:30.379Z,7.473755
2019-04-21T05:10:38.186Z,7.483826
2019-04-21T05:11:43.981Z,7.503967
2019-04-21T05:12:29.002Z,7.53418
2019-04-21T05:13:32.976Z,7.564392
2019-04-21T05:14:29.599Z,7.614746
2019-04-21T05:15:23.190Z,7.624817
2019-04-21T05:16:40.752Z,7.644958
2019-04-21T05:17:57.163Z,7.6651
2019-04-21T05:18:34.323Z,7.6651
2019-04-21T05:20:27.924Z,7.695312
2019-04-21T05:20:41.415Z,7.685242
2019-04-21T05:22:27.631Z,7.765808
2019-04-21T05:23:24.186Z,7.765808
2019-04-21T05:24:22.864Z,7.775879
2019-04-21T05:25:18.360Z,7.826233
2019-04-21T05:26:14.240Z,7.846375
2019-04-21T05:27:20.192Z,7.876587
2019-04-21T05:28:14.865Z,7.926941
2019-04-21T05:29:15.603Z,7.977295
2019-04-21T05:30:33.677Z,7.987366
2019-04-21T05:31:24.853Z,8.007507
2019-04-21T05:32:24.173Z,8.027649
2019-04-21T05:33:26.806Z,8.047791
2019-04-21T05:34:26.743Z,8.088074
2019-04-21T05:35:26.219Z,8.128357
2019-04-21T05:36:27.600Z,8.138428
2019-04-21T05:37:24.340Z,8.16864
2019-04-21T05:38:21.226Z,8.178711
2019-04-21T05:39:18.270Z,8.208923
2019-04-21T05:40:17.203Z,8.239136
2019-04-21T05:41:15.406Z,8.269348
2019-04-21T05:42:12.788Z,8.319702
2019-04-21T05:43:27.602Z,8.349915
2019-04-21T05:44:34.601Z,8.390198
2019-04-21T05:45:26.657Z,8.450623
2019-04-21T05:46:25.023Z,8.460693
2019-04-21T05:47:54.721Z,8.531189
2019-04-21T05:48:28.062Z,8.571472
2019-04-21T05:49:21.541Z,8.631897
2019-04-21T05:50:21.497Z,8.662109
2019-04-21T05:51:23.563Z,8.722534
2019-04-21T05:52:22.373Z,8.772888
2019-04-21T05:53:29.256Z,8.813171
2019-04-21T05:54:29.191Z,8.863525
2019-04-21T05:55:32.265Z,8.903809
2019-04-21T05:56:30.363Z,8.954163
2019-04-21T05:57:28.703Z,9.004517
2019-04-21T05:58:26.984Z,9.054871
2019-04-21T05:59:25.874Z,9.085083
2019-04-21T06:00:38.865Z,9.145508
2019-04-21T06:01:32.692Z,9.205933
2019-04-21T06:02:28.704Z,9.266357
2019-04-21T06:03:30.492Z,9.326782
2019-04-21T06:04:46.699Z,9.367065
2019-04-21T06:05:36.359Z,9.417419
2019-04-21T06:06:45.703Z,9.467773
2019-04-21T06:07:28.354Z,9.518127
2019-04-21T06:08:30.686Z,9.558411
2019-04-21T06:09:25.310Z,9.618835
2019-04-21T06:10:34.495Z,9.628906
2019-04-21T06:11:42.077Z,9.669189
2019-04-21T06:12:26.598Z,9.719543
2019-04-21T06:13:34.608Z,9.739685
2019-04-21T06:14:29.172Z,9.80011
2019-04-21T06:15:29.187Z,9.820251
2019-04-21T06:16:35.590Z,9.870605
2019-04-21T06:18:34.314Z,9.910889
2019-04-21T06:19:36.427Z,9.951172
2019-04-21T06:20:26.895Z,10.001526
2019-04-21T06:21:26.127Z,10.05188
2019-04-21T06:22:28.682Z,10.072021
2019-04-21T06:23:29.782Z,10.132446
2019-04-21T06:24:29.683Z,10.172729
2019-04-21T06:25:48.399Z,10.233154
2019-04-21T06:27:30.999Z,10.30365
2019-04-21T06:28:33.256Z,10.343933
2019-04-21T06:29:28.380Z,10.384216
2019-04-21T06:30:30.736Z,10.4245
2019-04-21T06:32:00.706Z,10.464783
2019-04-21T06:32:46.563Z,10.525208
2019-04-21T06:33:35.488Z,10.575562
2019-04-21T06:34:32.615Z,10.646057
2019-04-21T06:35:39.588Z,10.716553
2019-04-21T06:36:46.828Z,10.797119
2019-04-21T06:38:42.974Z,10.917969
2019-04-21T06:39:37.027Z,10.998535
2019-04-21T06:40:35.451Z,11.038818
2019-04-21T06:42:32.379Z,11.17981
2019-04-21T06:43:32.836Z,11.250305
2019-04-21T06:44:31.847Z,11.381226
2019-04-21T06:45:34.412Z,11.522217
2019-04-21T06:46:44.502Z,11.622925
2019-04-21T06:47:41.928Z,11.703491
2019-04-21T06:48:32.514Z,11.743774
2019-04-21T06:49:29.801Z,11.784058
2019-04-21T06:50:39.384Z,11.864624
2019-04-21T06:51:30.374Z,11.925049
2019-04-21T06:52:45.460Z,11.985474
2019-04-21T06:53:37.438Z,12.025757
2019-04-21T06:54:33.559Z,12.076111
2019-04-21T06:55:31.912Z,12.116394
2019-04-21T06:57:33.083Z,12.227173
2019-04-21T06:58:35.381Z,12.297668
2019-04-21T06:59:31.503Z,12.398376
2019-04-21T07:00:30.327Z,12.509155
2019-04-21T07:01:35.808Z,12.56958
2019-04-21T07:02:51.734Z,12.650146
2019-04-21T07:03:34.437Z,12.760925
2019-04-21T07:04:36.314Z,12.861633
2019-04-21T07:05:40.538Z,12.9422
2019-04-21T07:06:42.316Z,13.022766
2019-04-21T07:07:34.953Z,13.093262
2019-04-21T07:09:35.545Z,13.19397
2019-04-21T07:10:31.611Z,13.234253
2019-04-21T07:11:30.097Z,13.264465
2019-04-21T07:12:33.440Z,13.314819
2019-04-21T07:13:30.696Z,13.385315
2019-04-21T07:14:31.752Z,13.44574
2019-04-21T07:15:36.751Z,13.465881
2019-04-21T07:16:38.286Z,13.516235
2019-04-21T07:17:32.034Z,13.566589
2019-04-21T07:18:40.891Z,13.616943
2019-04-21T07:19:40.675Z,13.707581
2019-04-21T07:20:36.097Z,13.798218
2019-04-21T07:21:38.140Z,13.82843
2019-04-21T07:22:36.731Z,13.858643
2019-04-21T07:23:36.681Z,13.908997
2019-04-21T07:24:36.666Z,13.969421
2019-04-21T07:25:38.292Z,14.039917
2019-04-21T07:26:36.158Z,14.070129
2019-04-21T07:27:41.080Z,14.120483
2019-04-21T07:28:38.569Z,14.150696
2019-04-21T07:29:39.288Z,14.160767
2019-04-21T07:30:35.003Z,14.190979
2019-04-21T07:31:39.631Z,14.221191
2019-04-21T07:32:39.862Z,14.261475
2019-04-21T07:33:53.240Z,14.301758
2019-04-21T07:34:37.734Z,14.362183
2019-04-21T07:35:37.120Z,14.402466
2019-04-21T07:36:44.821Z,14.412537
2019-04-21T07:37:34.940Z,14.45282
2019-04-21T07:38:32.967Z,14.523315
2019-04-21T07:39:32.370Z,14.58374
2019-04-21T07:40:33.088Z,14.634094
2019-04-21T07:41:32.819Z,14.714661
2019-04-21T07:42:32.346Z,14.714661
2019-04-21T07:43:29.641Z,14.734802
2019-04-21T07:45:29.954Z,14.744873
2019-04-21T07:46:28.612Z,14.765015
2019-04-21T07:47:39.312Z,14.815369
2019-04-21T07:48:37.337Z,14.895935
2019-04-21T07:49:39.525Z,14.966431
2019-04-21T07:50:37.997Z,15.016785
2019-04-21T07:51:37.499Z,15.046997
2019-04-21T07:52:39.213Z,15.067139
2019-04-21T07:53:40.135Z,15.117493
2019-04-21T07:54:44.096Z,15.187988
2019-04-21T07:56:24.215Z,15.349121
2019-04-21T07:57:35.046Z,15.389404
2019-04-21T07:58:45.322Z,15.449829
2019-04-21T07:59:44.775Z,15.500183
2019-04-21T08:00:44.604Z,15.59082
2019-04-21T08:01:35.054Z,15.621033
2019-04-21T08:02:40.115Z,15.621033
2019-04-21T08:03:38.304Z,15.651245
2019-04-21T08:05:37.290Z,15.751953
2019-04-21T08:06:40.150Z,15.812378
2019-04-21T08:07:47.310Z,15.882874
2019-04-21T08:08:33.219Z,15.96344
2019-04-21T08:09:40.610Z,16.023865
2019-04-21T08:10:37.622Z,16.064148
2019-04-21T08:11:35.402Z,16.104431
2019-04-21T08:12:35.785Z,16.174927
2019-04-21T08:13:51.501Z,16.245422
2019-04-21T08:15:39.396Z,17.373352
2019-04-21T08:16:36.578Z,18.450928
2019-04-21T08:17:40.989Z,19.598999
2019-04-21T08:18:38.943Z,20.152893
2019-04-21T08:19:35.034Z,20.777283
2019-04-21T08:20:34.458Z,21.452026
2019-04-21T08:21:40.321Z,22.056274
2019-04-21T08:22:46.217Z,22.731018
2019-04-21T08:23:36.695Z,23.204346
2019-04-21T08:24:41.962Z,23.214417
2019-04-21T08:25:45.506Z,22.771301
2019-04-21T08:26:41.283Z,22.368469
2019-04-21T08:27:53.725Z,22.579956
2019-04-21T08:28:45.397Z,22.680664
2019-04-21T08:30:04.246Z,22.519531
2019-04-21T08:30:54.043Z,22.781372
2019-04-21T08:31:48.329Z,23.234558
2019-04-21T08:33:44.854Z,23.627319
2019-04-21T08:34:42.757Z,24.241638
2019-04-21T08:36:39.804Z,25.963745
2019-04-21T08:37:36.844Z,26.608276
2019-04-21T08:38:40.012Z,26.970825
2019-04-21T08:39:47.706Z,26.708984
2019-04-21T08:41:43.654Z,26.114807
2019-04-21T08:42:44.529Z,25.983887
2019-04-21T08:44:46.497Z,25.158081
2019-04-21T08:45:41.261Z,24.714966
2019-04-21T08:46:45.888Z,24.51355
2019-04-21T08:48:41.879Z,24.161072
2019-04-21T08:49:40.815Z,24.090576
2019-04-21T08:52:00.476Z,23.858948
2019-04-21T08:53:47.374Z,23.818665
2019-04-21T08:54:40.463Z,23.657532
2019-04-21T08:55:48.720Z,23.284912
2019-04-21T08:56:39.717Z,23.13385
2019-04-21T08:57:50.292Z,22.962646
2019-04-21T08:58:41.173Z,22.731018
2019-04-21T08:59:43.341Z,22.549744
2019-04-21T09:00:46.614Z,22.519531
2019-04-21T09:01:42.567Z,22.37854
2019-04-21T09:02:40.128Z,22.24762
2019-04-21T09:03:42.840Z,22.358398
2019-04-21T09:04:39.054Z,22.338257
2019-04-21T09:06:58.447Z,22.227478
2019-04-21T09:07:44.517Z,22.24762
2019-04-21T09:08:45.432Z,22.217407
2019-04-21T09:09:41.056Z,22.076416
2019-04-21T09:10:39.016Z,22.136841
2019-04-21T09:11:40.168Z,22.358398
2019-04-21T09:12:40.290Z,22.710876
2019-04-21T09:13:40.779Z,23.264771
2019-04-21T09:14:41.296Z,23.657532
2019-04-21T09:15:41.396Z,23.848877
2019-04-21T09:16:40.549Z,24.110718
2019-04-21T09:17:36.415Z,24.463196
2019-04-21T09:18:37.991Z,24.584045
2019-04-21T09:19:49.642Z,24.322205
2019-04-21T09:20:45.871Z,23.999939
2019-04-21T09:21:43.430Z,23.768311
2019-04-21T09:22:41.041Z,23.657532
2019-04-21T09:23:44.462Z,23.516541
2019-04-21T09:24:45.234Z,23.214417
2019-04-21T09:25:45.992Z,23.174133
2019-04-21T09:26:39.301Z,23.325195
2019-04-21T09:27:40.865Z,23.335266
2019-04-21T09:28:39.284Z,23.315125
2019-04-21T09:29:30.799Z,23.164062
2019-04-21T09:30:26.324Z,23.143921
2019-04-21T09:31:30.835Z,23.435974
2019-04-21T09:32:29.052Z,23.707886
2019-04-21T09:33:33.319Z,23.939514
2019-04-21T09:34:33.087Z,23.999939
2019-04-21T09:35:26.992Z,23.808594
2019-04-21T09:36:34.901Z,23.738098
2019-04-21T09:37:37.544Z,23.657532
2019-04-21T09:38:32.777Z,23.476257
2019-04-21T09:39:29.262Z,23.325195
2019-04-21T09:40:32.450Z,23.083496
2019-04-21T09:41:28.168Z,22.841797
2019-04-21T09:42:31.990Z,22.670593
2019-04-21T09:43:34.010Z,22.700806
2019-04-21T09:44:31.342Z,22.670593
2019-04-21T09:45:26.631Z,22.590027
2019-04-21T09:46:27.570Z,22.338257
2019-04-21T09:47:34.900Z,22.25769
2019-04-21T09:48:28.517Z,22.297974
2019-04-21T09:49:30.851Z,22.408752
2019-04-21T09:50:27.113Z,22.519531
2019-04-21T09:51:28.040Z,22.519531
2019-04-21T09:52:33.275Z,22.50946
2019-04-21T09:53:32.684Z,22.579956
2019-04-21T09:54:31.215Z,22.610168
2019-04-21T09:55:36.275Z,22.63031
2019-04-21T09:56:33.418Z,22.620239
2019-04-21T09:57:38.001Z,22.610168
2019-04-21T09:58:33.426Z,22.700806
2019-04-21T09:59:33.454Z,22.952576
2019-04-21T10:00:31.196Z,23.174133
2019-04-21T10:01:33.801Z,23.284912
2019-04-21T10:02:37.250Z,23.284912
2019-04-21T10:03:35.845Z,23.335266
2019-04-21T10:04:28.967Z,23.355408
2019-04-21T10:05:27.391Z,23.395691
2019-04-21T10:06:28.342Z,23.466187
2019-04-21T10:07:33.204Z,23.546753
2019-04-21T10:08:29.430Z,23.687744
2019-04-21T10:09:28.973Z,23.919373
2019-04-21T10:10:27.658Z,23.879089
2019-04-21T10:11:28.746Z,23.657532
2019-04-21T10:12:28.770Z,23.446045
2019-04-21T10:13:27.692Z,23.214417
2019-04-21T10:14:28.655Z,22.781372
2019-04-21T10:15:28.334Z,22.368469
2019-04-21T10:16:27.942Z,22.338257
2019-04-21T10:17:27.943Z,22.358398
2019-04-21T10:18:29.359Z,22.25769
2019-04-21T10:19:36.196Z,22.207336
2019-04-21T10:20:28.503Z,22.25769
2019-04-21T10:21:29.371Z,22.25769
2019-04-21T10:22:29.268Z,22.24762
2019-04-21T10:23:29.359Z,22.438965
2019-04-21T10:24:28.552Z,22.519531
2019-04-21T10:25:30.630Z,22.670593
2019-04-21T10:26:28.712Z,22.912292
2019-04-21T10:27:29.410Z,23.174133
2019-04-21T10:28:28.844Z,23.446045
2019-04-21T10:29:30.949Z,23.697815
2019-04-21T10:30:30.722Z,23.75824
2019-04-21T10:31:29.037Z,23.738098
2019-04-21T10:32:30.223Z,23.919373
2019-04-21T10:33:30.233Z,24.211426
2019-04-21T10:34:29.358Z,24.51355
2019-04-21T10:35:29.139Z,24.76532
2019-04-21T10:36:29.153Z,24.714966
2019-04-21T10:37:41.835Z,24.845886
2019-04-21T10:38:37.881Z,25.087585
2019-04-21T10:39:31.528Z,25.339355
2019-04-21T10:40:32.447Z,25.560913
2019-04-21T10:41:30.593Z,25.560913
2019-04-21T10:42:29.688Z,25.460205
2019-04-21T10:43:31.186Z,25.409851
2019-04-21T10:44:31.411Z,25.460205
2019-04-21T10:45:30.821Z,25.540771
2019-04-21T10:46:30.771Z,25.681763
2019-04-21T10:47:31.346Z,25.983887
2019-04-21T10:48:34.196Z,25.591125
2019-04-21T10:49:30.752Z,25.591125
2019-04-21T10:50:31.380Z,25.701904
2019-04-21T10:51:30.858Z,25.923462
2019-04-21T10:52:32.240Z,25.742188
2019-04-21T10:53:31.187Z,25.369568
2019-04-21T10:54:48.924Z,25.429993
2019-04-21T10:55:48.369Z,25.359497
2019-04-21T10:56:36.932Z,25.440063
2019-04-21T10:57:32.645Z,25.460205
2019-04-21T10:58:32.129Z,25.661621
2019-04-21T10:59:31.314Z,25.802612
2019-04-21T11:00:32.425Z,25.812683
2019-04-21T11:01:32.511Z,25.852966
2019-04-21T11:02:32.770Z,26.175232
2019-04-21T11:03:33.057Z,26.447144
2019-04-21T11:04:36.378Z,26.487427
2019-04-21T11:05:32.921Z,26.477356
2019-04-21T11:06:32.553Z,26.65863
2019-04-21T11:07:36.058Z,26.849976
2019-04-21T11:08:37.646Z,27.081604
2019-04-21T11:09:33.934Z,27.333374
2019-04-21T11:10:32.283Z,27.846985
2019-04-21T11:11:32.472Z,28.269958
2019-04-21T11:12:33.555Z,28.380737
2019-04-21T11:13:34.721Z,28.713074
2019-04-21T11:14:33.438Z,28.995056
2019-04-21T11:15:32.872Z,29.015198
2019-04-21T11:16:33.233Z,28.521729
2019-04-21T11:17:34.232Z,27.66571
2019-04-21T11:18:34.182Z,27.474365
2019-04-21T11:19:34.852Z,27.454224
2019-04-21T11:20:33.286Z,27.78656
2019-04-21T11:21:34.680Z,28.350525
2019-04-21T11:22:33.988Z,28.783569
2019-04-21T11:23:35.322Z,29.176331
2019-04-21T11:24:35.060Z,29.649658
2019-04-21T11:25:33.766Z,29.569092
2019-04-21T11:26:33.825Z,30.05249
2019-04-21T11:27:35.090Z,30.17334
2019-04-21T11:28:34.604Z,30.364685
2019-04-21T11:29:35.048Z,30.697021
2019-04-21T11:30:33.790Z,30.334473
2019-04-21T11:31:33.793Z,30.767517
2019-04-21T11:32:35.040Z,30.918579
2019-04-21T11:33:35.559Z,30.92865
2019-04-21T11:34:33.980Z,29.961853
2019-04-21T11:35:35.086Z,28.823853
2019-04-21T11:36:35.274Z,28.592224
2019-04-21T11:37:35.190Z,29.025269
2019-04-21T11:38:45.826Z,29.518738
2019-04-21T11:39:45.457Z,30.05249
2019-04-21T11:40:36.001Z,30.505676
2019-04-21T11:41:35.888Z,30.757446
2019-04-21T11:42:35.579Z,31.099854
2019-04-21T11:43:35.151Z,31.0495
2019-04-21T11:44:37.211Z,31.140137
2019-04-21T11:45:36.612Z,31.361694
2019-04-21T11:46:36.255Z,31.724243
2019-04-21T11:47:36.444Z,31.885376
2019-04-21T11:48:36.544Z,32.086792
2019-04-21T11:49:36.945Z,32.217712
2019-04-21T11:50:37.001Z,32.338562
2019-04-21T11:51:35.724Z,32.086792
2019-04-21T11:52:36.883Z,32.036438
2019-04-21T11:53:37.024Z,32.157288
2019-04-21T11:54:37.103Z,31.794739
2019-04-21T11:55:41.055Z,30.455322
2019-04-21T11:56:37.079Z,30.143127
2019-04-21T11:57:41.538Z,30.646667
2019-04-21T11:58:37.128Z,31.079712
2019-04-21T11:59:37.502Z,31.391907
2019-04-21T12:00:36.146Z,31.945801
2019-04-21T12:01:37.308Z,32.268066
2019-04-21T12:02:37.372Z,32.630615
2019-04-21T12:03:37.637Z,32.711182
2019-04-21T12:04:36.470Z,32.660828
2019-04-21T12:05:37.244Z,32.932739
2019-04-21T12:06:41.264Z,33.305359
2019-04-21T12:07:37.765Z,33.657837
2019-04-21T12:08:42.758Z,33.305359
2019-04-21T12:09:37.999Z,33.083801
2019-04-21T12:10:37.622Z,33.003235
2019-04-21T12:11:37.140Z,31.885376
2019-04-21T12:12:37.297Z,31.81488
2019-04-21T12:13:38.457Z,32.30835
2019-04-21T12:14:39.692Z,32.82196
2019-04-21T12:15:38.908Z,32.94281
2019-04-21T12:16:39.125Z,32.459412
2019-04-21T12:21:57.286Z,33.043518
2019-04-21T12:22:47.447Z,33.053589
2019-04-21T12:23:46.470Z,32.882385
2019-04-21T12:24:47.071Z,32.852173
2019-04-21T12:25:47.330Z,32.489624
2019-04-21T12:26:46.719Z,32.43927
2019-04-21T12:27:47.820Z,32.81189
2019-04-21T12:28:47.897Z,33.083801
2019-04-21T12:29:47.970Z,33.224792
2019-04-21T12:30:47.357Z,32.983093
2019-04-21T12:31:47.632Z,33.124084
2019-04-21T12:32:48.542Z,33.053589
2019-04-21T12:33:47.794Z,33.134155
2019-04-21T12:34:50.449Z,33.31543
2019-04-21T12:35:48.146Z,33.285217
2019-04-21T12:36:48.710Z,32.781677
2019-04-21T12:37:48.976Z,32.711182
2019-04-21T12:38:53.629Z,33.174438
2019-04-21T12:39:50.458Z,33.476562
2019-04-21T12:40:50.620Z,33.033447